Time;durP1;ratioP1;P1;durP2;ratioP2;P2;SDS_P1;SDS_P2;PMS_P1;PMS_P2;Temp;Humidity;BMP_temperature;BMP_pressure;BME280_temperature;BME280_humidity;BME280_pressure;Samples;Min_cycle;Max_cycle;Signal;HPM_P1;HPM_P2
2023/10/26 00:00:59;;;;;;;10.25;9.25;;;10.80;99.90;;;;;;5042579;28;20053;-43
2023/10/26 00:03:24;;;;;;;11.30;8.52;;;10.80;99.90;;;;;;5040305;28;20723;-43
2023/10/26 00:05:50;;;;;;;10.95;9.40;;;10.80;99.90;;;;;;5041741;28;20029;-43
2023/10/26 00:08:15;;;;;;;10.52;9.18;;;10.80;99.90;;;;;;5041063;28;20036;-43
2023/10/26 00:10:41;;;;;;;10.43;9.40;;;10.80;99.90;;;;;;5040450;28;20639;-43
2023/10/26 00:13:09;;;;;;;11.85;10.45;;;10.70;99.90;;;;;;5040760;28;20079;-43
2023/10/26 00:15:35;;;;;;;10.75;9.13;;;10.70;99.90;;;;;;5041600;28;20049;-43
2023/10/26 00:18:03;;;;;;;10.77;9.75;;;10.70;99.90;;;;;;5039671;28;20112;-43
2023/10/26 00:20:30;;;;;;;11.43;10.23;;;10.70;99.90;;;;;;5041007;28;20028;-43
2023/10/26 00:22:56;;;;;;;11.50;9.80;;;10.60;99.90;;;;;;5040788;28;20555;-43
2023/10/26 00:25:21;;;;;;;11.48;10.38;;;10.60;99.90;;;;;;5039782;28;20021;-43
2023/10/26 00:27:47;;;;;;;15.48;11.40;;;10.60;99.90;;;;;;5041097;28;20776;-42
2023/10/26 00:30:13;;;;;;;13.88;12.23;;;10.60;99.90;;;;;;5040184;28;20025;-43
2023/10/26 00:32:40;;;;;;;14.85;11.80;;;10.50;99.90;;;;;;5040979;28;20357;-43
2023/10/26 00:35:08;;;;;;;13.25;11.07;;;10.40;99.90;;;;;;5040940;28;20064;-44
2023/10/26 00:37:34;;;;;;;13.52;11.20;;;10.40;99.90;;;;;;5040319;28;20094;-43
2023/10/26 00:39:59;;;;;;;12.88;11.30;;;10.30;99.90;;;;;;5041082;28;20096;-43
2023/10/26 00:42:25;;;;;;;13.20;11.70;;;10.30;99.90;;;;;;5041157;28;20116;-43
2023/10/26 00:44:51;;;;;;;15.60;13.05;;;10.30;99.90;;;;;;5038596;28;20082;-43
2023/10/26 00:47:17;;;;;;;15.10;13.52;;;10.20;99.90;;;;;;5040130;28;20025;-42
2023/10/26 00:49:43;;;;;;;14.55;12.88;;;10.20;99.90;;;;;;5040546;28;20432;-44
2023/10/26 00:52:09;;;;;;;14.60;13.07;;;10.20;99.90;;;;;;5040087;28;20488;-42
2023/10/26 00:54:36;;;;;;;16.10;14.40;;;10.20;99.90;;;;;;5040312;28;20036;-43
2023/10/26 00:57:02;;;;;;;15.45;13.63;;;10.20;99.90;;;;;;5040589;28;20040;-43
2023/10/26 00:59:29;;;;;;;17.02;13.93;;;10.10;99.90;;;;;;5040075;28;20035;-43
2023/10/26 01:01:57;;;;;;;17.13;12.75;;;10.10;99.90;;;;;;5040962;28;20127;-44
2023/10/26 01:04:25;;;;;;;15.68;13.73;;;10.10;99.90;;;;;;5039516;28;20020;-43
2023/10/26 01:06:51;;;;;;;14.73;13.15;;;10.10;99.90;;;;;;5040553;28;20032;-43
2023/10/26 01:09:17;;;;;;;15.02;13.10;;;10.10;99.90;;;;;;5040251;28;20376;-44
2023/10/26 01:11:42;;;;;;;16.98;14.07;;;10.10;99.90;;;;;;5040198;28;20033;-43
2023/10/26 01:14:08;;;;;;;14.75;13.23;;;10.10;99.90;;;;;;5039515;28;20548;-43
2023/10/26 01:16:54;;;;;;;16.20;13.82;;;10.00;99.90;;;;;;5040605;28;20781;-45
2023/10/26 01:19:20;;;;;;;15.05;13.45;;;10.00;99.90;;;;;;5038784;28;20055;-44
2023/10/26 01:21:53;;;;;;;14.07;12.57;;;10.00;99.90;;;;;;5040011;28;20472;-43
2023/10/26 01:24:19;;;;;;;14.35;12.63;;;10.00;99.90;;;;;;5040294;28;20104;-44
2023/10/26 01:26:47;;;;;;;14.70;12.85;;;10.00;99.90;;;;;;5040231;28;20129;-43
2023/10/26 01:29:13;;;;;;;14.85;12.98;;;10.00;99.90;;;;;;5039968;28;20036;-44
2023/10/26 01:31:38;;;;;;;15.20;12.73;;;10.00;99.90;;;;;;5040236;28;20475;-44
2023/10/26 01:34:04;;;;;;;14.50;12.48;;;10.00;99.90;;;;;;5038596;28;20500;-43
2023/10/26 01:36:30;;;;;;;15.00;13.35;;;10.00;99.90;;;;;;5040143;28;20764;-44
2023/10/26 01:38:56;;;;;;;13.02;11.32;;;10.00;99.90;;;;;;5040775;28;20025;-43
2023/10/26 01:41:31;;;;;;;11.10;9.98;;;10.00;99.90;;;;;;5039284;28;20044;-43
2023/10/26 01:43:57;;;;;;;10.50;9.40;;;10.10;99.90;;;;;;5021514;28;20077;-44
2023/10/26 01:46:23;;;;;;;13.82;12.30;;;10.10;99.90;;;;;;5034523;28;20556;-44
2023/10/26 01:48:48;;;;;;;12.00;10.70;;;10.10;99.90;;;;;;5040236;28;20033;-43
2023/10/26 01:51:14;;;;;;;12.32;10.45;;;10.20;99.90;;;;;;5040358;28;20025;-43
2023/10/26 01:53:40;;;;;;;12.90;11.55;;;10.20;99.90;;;;;;5040403;28;20033;-43
2023/10/26 01:56:09;;;;;;;12.65;10.27;;;10.20;99.90;;;;;;5039444;28;20360;-43
2023/10/26 01:58:34;;;;;;;11.63;10.07;;;10.20;99.90;;;;;;5043217;28;20025;-43
2023/10/26 02:01:00;;;;;;;9.95;8.95;;;10.20;99.90;;;;;;5043712;28;20025;-43
2023/10/26 02:03:26;;;;;;;11.25;10.05;;;10.30;99.90;;;;;;5043108;28;20064;-43
2023/10/26 02:05:54;;;;;;;12.07;9.40;;;10.30;99.90;;;;;;5043429;28;20100;-43
2023/10/26 02:08:20;;;;;;;9.43;8.40;;;10.30;99.90;;;;;;5042901;28;20036;-44
2023/10/26 02:10:48;;;;;;;15.20;13.60;;;10.40;99.90;;;;;;5043487;28;20021;-44
2023/10/26 02:13:14;;;;;;;13.32;11.85;;;10.40;99.90;;;;;;5043222;28;20031;-44
2023/10/26 02:15:39;;;;;;;14.57;13.02;;;10.40;99.90;;;;;;5042780;28;20033;-44
2023/10/26 02:18:05;;;;;;;12.80;11.50;;;10.30;99.90;;;;;;5043015;28;20684;-44
2023/10/26 02:20:30;;;;;;;13.40;11.90;;;10.30;99.90;;;;;;5043031;28;20021;-43
2023/10/26 02:22:56;;;;;;;14.95;13.30;;;10.30;99.90;;;;;;5042545;28;20384;-44
2023/10/26 02:25:21;;;;;;;16.00;14.30;;;10.40;99.90;;;;;;5043138;28;20021;-44
2023/10/26 02:27:50;;;;;;;19.38;15.27;;;10.40;99.90;;;;;;5043364;28;20037;-44
2023/10/26 02:30:15;;;;;;;20.02;16.27;;;10.30;99.90;;;;;;5043051;28;20021;-44
2023/10/26 02:32:41;;;;;;;16.95;15.15;;;10.30;99.90;;;;;;5042779;28;20761;-45
2023/10/26 02:35:07;;;;;;;14.52;12.98;;;10.30;99.90;;;;;;5042725;28;20090;-44
2023/10/26 02:37:38;;;;;;;16.95;14.30;;;10.30;99.90;;;;;;5042961;28;20025;-44
2023/10/26 02:40:08;;;;;;;14.73;12.68;;;10.30;99.90;;;;;;5042521;28;20029;-43
2023/10/26 02:42:34;;;;;;;16.35;13.38;;;10.30;99.90;;;;;;5042601;28;20037;-43
2023/10/26 02:45:00;;;;;;;17.02;14.70;;;10.30;99.90;;;;;;5041678;28;20162;-44
2023/10/26 02:47:26;;;;;;;17.40;14.65;;;10.30;99.90;;;;;;5042351;28;20040;-43
2023/10/26 02:49:51;;;;;;;19.10;15.68;;;10.30;99.90;;;;;;5043191;28;20039;-43
2023/10/26 02:52:17;;;;;;;19.17;14.77;;;10.30;99.90;;;;;;5041005;28;20123;-44
2023/10/26 02:54:43;;;;;;;15.55;13.85;;;10.30;99.90;;;;;;5042168;28;20032;-44
2023/10/26 02:57:08;;;;;;;12.40;11.10;;;10.30;99.90;;;;;;5042305;28;20058;-42
2023/10/26 02:59:34;;;;;;;12.50;10.70;;;10.30;99.90;;;;;;5041797;28;20017;-43
2023/10/26 03:01:59;;;;;;;14.35;11.38;;;10.30;99.90;;;;;;5042354;28;20487;-44
2023/10/26 03:04:25;;;;;;;14.68;12.45;;;10.20;99.90;;;;;;5042445;28;20021;-44
2023/10/26 03:06:50;;;;;;;16.63;14.82;;;10.20;99.90;;;;;;5041862;28;20112;-44
2023/10/26 03:09:16;;;;;;;15.57;12.55;;;10.20;99.90;;;;;;5040459;28;20025;-43
2023/10/26 03:11:42;;;;;;;15.38;13.52;;;10.20;99.90;;;;;;5042409;28;20059;-45
2023/10/26 03:14:11;;;;;;;18.73;16.02;;;10.20;99.90;;;;;;5041547;28;20434;-43
2023/10/26 03:16:36;;;;;;;18.70;16.70;;;10.20;99.90;;;;;;5042479;28;20655;-43
2023/10/26 03:19:02;;;;;;;15.85;13.93;;;10.20;99.90;;;;;;5041510;28;20032;-44
2023/10/26 03:21:28;;;;;;;14.93;13.02;;;10.20;99.90;;;;;;5042328;28;20064;-45
2023/10/26 03:23:53;;;;;;;13.70;11.82;;;10.20;99.90;;;;;;5042582;28;20094;-44
2023/10/26 03:26:20;;;;;;;12.45;10.73;;;10.30;99.90;;;;;;5041456;28;20850;-44
2023/10/26 03:28:48;;;;;;;11.95;10.38;;;10.30;99.90;;;;;;5041466;28;20516;-44
2023/10/26 03:31:13;;;;;;;12.57;10.82;;;10.30;99.90;;;;;;5041716;28;20029;-44
2023/10/26 03:33:42;;;;;;;12.07;10.52;;;10.40;99.90;;;;;;5041017;28;20099;-44
2023/10/26 03:36:18;;;;;;;11.80;9.55;;;10.50;99.90;;;;;;5041335;28;20017;-43
2023/10/26 03:38:49;;;;;;;11.02;9.93;;;10.50;99.90;;;;;;5042031;28;20033;-47
2023/10/26 03:41:15;;;;;;;13.15;11.65;;;10.50;99.90;;;;;;5041410;28;20041;-43
2023/10/26 03:43:41;;;;;;;15.98;12.25;;;10.50;99.90;;;;;;5041992;28;20041;-44
2023/10/26 03:46:07;;;;;;;20.13;12.75;;;10.50;99.90;;;;;;5040961;28;20040;-43
2023/10/26 03:48:34;;;;;;;26.65;14.32;;;10.50;99.90;;;;;;5040512;28;20032;-42
2023/10/26 03:51:00;;;;;;;25.27;15.27;;;10.50;99.90;;;;;;5040956;28;20029;-43
2023/10/26 03:53:26;;;;;;;15.18;12.95;;;10.40;99.90;;;;;;5041251;28;20063;-43
2023/10/26 03:55:52;;;;;;;12.95;11.55;;;10.50;99.90;;;;;;5041129;28;20021;-44
2023/10/26 03:58:17;;;;;;;16.90;12.77;;;10.40;99.90;;;;;;5040941;28;20375;-43
2023/10/26 04:00:43;;;;;;;20.75;13.15;;;10.40;99.90;;;;;;5040885;28;20044;-43
2023/10/26 04:03:08;;;;;;;16.42;12.18;;;10.40;99.90;;;;;;5040472;28;20079;-44
2023/10/26 04:05:34;;;;;;;21.15;11.82;;;10.30;99.90;;;;;;5040973;28;20052;-43
2023/10/26 04:08:02;;;;;;;16.98;10.98;;;10.30;99.90;;;;;;5041213;28;20041;-43
2023/10/26 04:10:28;;;;;;;22.30;12.05;;;10.40;99.90;;;;;;5041520;28;20021;-43
2023/10/26 04:12:54;;;;;;;20.33;11.13;;;10.30;99.90;;;;;;5041943;28;20431;-43
2023/10/26 04:15:20;;;;;;;11.07;9.88;;;10.30;99.90;;;;;;5039952;28;20029;-43
2023/10/26 04:17:45;;;;;;;10.80;8.65;;;10.30;99.90;;;;;;5041221;28;20128;-44
2023/10/26 04:20:11;;;;;;;9.68;8.68;;;10.30;99.90;;;;;;5041342;28;20033;-43
2023/10/26 04:22:36;;;;;;;11.25;8.70;;;10.30;99.90;;;;;;5038328;28;20057;-43
2023/10/26 04:25:03;;;;;;;9.68;8.68;;;10.30;99.90;;;;;;5039532;28;20488;-44
2023/10/26 04:27:29;;;;;;;10.15;8.98;;;10.30;99.90;;;;;;5040162;28;20028;-44
2023/10/26 04:29:54;;;;;;;12.57;9.23;;;10.40;99.90;;;;;;5040366;28;20021;-43
2023/10/26 04:32:20;;;;;;;9.57;8.57;;;10.40;99.90;;;;;;5039533;28;20029;-44
2023/10/26 04:34:45;;;;;;;11.05;9.35;;;10.40;99.90;;;;;;5040165;28;20037;-44
2023/10/26 04:37:11;;;;;;;10.90;9.55;;;10.50;99.90;;;;;;5039253;28;20021;-43
2023/10/26 04:39:37;;;;;;;12.27;10.23;;;10.50;99.90;;;;;;5040267;28;20454;-43
2023/10/26 04:42:04;;;;;;;9.98;8.98;;;10.50;99.90;;;;;;5039284;28;20029;-45
2023/10/26 04:44:30;;;;;;;10.32;9.23;;;10.50;99.90;;;;;;5040128;28;20025;-44
2023/10/26 04:46:55;;;;;;;10.63;9.52;;;10.60;99.90;;;;;;5039458;28;20047;-44
2023/10/26 04:49:23;;;;;;;10.48;9.38;;;10.60;99.90;;;;;;5039975;28;20029;-43
2023/10/26 04:51:49;;;;;;;10.93;9.48;;;10.60;99.90;;;;;;5039426;28;20499;-43
2023/10/26 04:54:14;;;;;;;18.33;10.13;;;10.60;99.90;;;;;;5040169;28;20075;-43
2023/10/26 04:56:42;;;;;;;12.10;9.75;;;10.60;99.90;;;;;;5040733;28;20031;-43
2023/10/26 04:59:07;;;;;;;23.80;9.32;;;10.70;99.90;;;;;;5038510;28;20082;-44
2023/10/26 05:01:33;;;;;;;15.30;8.27;;;10.70;99.90;;;;;;5039931;28;20536;-44
2023/10/26 05:04:05;;;;;;;21.30;8.38;;;10.60;99.90;;;;;;5040678;28;20025;-44
2023/10/26 05:06:32;;;;;;;13.48;7.63;;;10.60;99.90;;;;;;5039843;28;20033;-43
2023/10/26 05:08:58;;;;;;;14.55;8.02;;;10.50;99.90;;;;;;5036684;28;20017;-43
2023/10/26 05:11:23;;;;;;;10.43;7.07;;;10.60;99.90;;;;;;5039645;28;20040;-44
2023/10/26 05:13:52;;;;;;;8.25;7.45;;;10.50;99.90;;;;;;5038950;28;20021;-43
2023/10/26 05:16:18;;;;;;;26.25;7.80;;;10.50;99.90;;;;;;5038978;28;20433;-43
2023/10/26 05:18:43;;;;;;;11.82;8.13;;;10.50;99.90;;;;;;5038828;28;20033;-43
2023/10/26 05:21:09;;;;;;;15.88;9.00;;;10.50;99.90;;;;;;5039173;28;20028;-43
2023/10/26 05:23:34;;;;;;;19.40;8.95;;;10.50;99.90;;;;;;5038982;28;20041;-43
2023/10/26 05:26:01;;;;;;;11.02;7.88;;;10.50;99.90;;;;;;5038879;28;20025;-43
2023/10/26 05:28:27;;;;;;;16.30;8.00;;;10.50;99.90;;;;;;5038878;28;20057;-43
2023/10/26 05:30:52;;;;;;;9.38;7.43;;;10.50;99.90;;;;;;5040460;28;20148;-43
2023/10/26 05:33:18;;;;;;;10.65;7.70;;;10.50;99.90;;;;;;5042471;28;20671;-43
2023/10/26 05:35:44;;;;;;;9.27;7.25;;;10.50;99.90;;;;;;5043807;28;20468;-43
2023/10/26 05:38:10;;;;;;;8.32;7.18;;;10.50;99.90;;;;;;5042911;28;20025;-44
2023/10/26 05:40:36;;;;;;;9.52;7.65;;;10.50;99.90;;;;;;5043044;28;20032;-44
2023/10/26 05:43:02;;;;;;;11.27;7.60;;;10.50;99.90;;;;;;5042426;28;20037;-44
2023/10/26 05:45:29;;;;;;;10.55;7.18;;;10.50;99.90;;;;;;5043097;28;20445;-44
2023/10/26 05:47:55;;;;;;;12.77;7.28;;;10.50;99.90;;;;;;5042291;28;20029;-43
2023/10/26 05:50:21;;;;;;;10.93;7.00;;;10.50;99.90;;;;;;5042729;28;20166;-43
2023/10/26 05:52:46;;;;;;;7.97;6.63;;;10.50;99.90;;;;;;5043402;28;20028;-43
2023/10/26 05:55:12;;;;;;;8.20;7.40;;;10.50;99.90;;;;;;5042317;28;20098;-43
2023/10/26 05:57:41;;;;;;;12.70;7.40;;;10.40;99.90;;;;;;5043863;28;20068;-44
2023/10/26 06:00:09;;;;;;;7.65;6.95;;;10.40;99.90;;;;;;5042057;28;20028;-44
2023/10/26 06:02:44;;;;;;;15.90;7.80;;;10.50;99.90;;;;;;5041998;28;20064;-44
2023/10/26 06:05:09;;;;;;;10.13;7.85;;;10.40;99.90;;;;;;5042728;28;20031;-43
2023/10/26 06:07:35;;;;;;;9.93;7.85;;;10.40;99.90;;;;;;5041440;28;20037;-44
2023/10/26 06:10:01;;;;;;;7.90;7.15;;;10.40;99.90;;;;;;5040731;28;20021;-44
2023/10/26 06:12:26;;;;;;;7.90;7.10;;;10.40;99.90;;;;;;5041211;28;20141;-44
2023/10/26 06:14:52;;;;;;;11.55;7.35;;;10.30;99.90;;;;;;5041205;28;20059;-43
2023/10/26 06:17:17;;;;;;;10.05;6.80;;;10.30;99.90;;;;;;5041590;28;20024;-44
2023/10/26 06:19:43;;;;;;;7.82;6.68;;;10.30;99.90;;;;;;5042205;28;20104;-44
2023/10/26 06:22:09;;;;;;;7.50;6.78;;;10.30;99.90;;;;;;5041630;28;20143;-43
2023/10/26 06:24:35;;;;;;;7.10;6.40;;;10.30;99.90;;;;;;5043055;28;20736;-43
2023/10/26 06:27:00;;;;;;;7.03;6.32;;;10.30;99.90;;;;;;5032187;28;20028;-44
2023/10/26 06:29:26;;;;;;;13.48;6.65;;;10.30;99.90;;;;;;5042038;28;20029;-44
2023/10/26 06:31:52;;;;;;;10.38;6.70;;;10.20;99.90;;;;;;5043776;28;20025;-44
2023/10/26 06:34:17;;;;;;;12.65;5.78;;;10.30;99.90;;;;;;5042944;28;20060;-43
2023/10/26 06:36:43;;;;;;;7.53;6.85;;;10.30;99.90;;;;;;5041958;28;20071;-44
2023/10/26 06:39:09;;;;;;;15.18;5.60;;;10.20;99.90;;;;;;5042954;28;20057;-43
2023/10/26 06:41:34;;;;;;;14.30;5.72;;;10.20;99.90;;;;;;5043124;28;20056;-43
2023/10/26 06:44:00;;;;;;;16.25;6.25;;;10.20;99.90;;;;;;5041143;28;20111;-44
2023/10/26 06:46:25;;;;;;;28.48;5.35;;;10.30;99.90;;;;;;5042231;28;20539;-43
2023/10/26 06:48:51;;;;;;;9.60;5.13;;;10.30;99.90;;;;;;5042731;28;20021;-42
2023/10/26 06:51:18;;;;;;;20.25;5.47;;;10.30;99.90;;;;;;5041830;28;20048;-44
2023/10/26 06:53:44;;;;;;;14.02;4.88;;;10.20;99.90;;;;;;5043297;28;20154;-44
2023/10/26 06:56:11;;;;;;;17.38;5.40;;;10.30;99.90;;;;;;5042506;28;20623;-43
2023/10/26 06:58:36;;;;;;;22.92;6.10;;;10.20;99.90;;;;;;5042173;28;20033;-43
2023/10/26 07:01:06;;;;;;;25.17;6.65;;;10.20;99.90;;;;;;5041611;28;20029;-43
2023/10/26 07:03:34;;;;;;;16.52;7.32;;;10.30;99.90;;;;;;5042541;28;20551;-42
2023/10/26 07:06:01;;;;;;;13.35;5.38;;;10.30;99.90;;;;;;5042144;28;20036;-43
2023/10/26 07:08:27;;;;;;;15.88;5.50;;;10.30;99.90;;;;;;5042423;28;20021;-43
2023/10/26 07:10:54;;;;;;;22.55;5.22;;;10.20;99.90;;;;;;5042305;28;20886;-44
2023/10/26 07:13:20;;;;;;;26.65;5.47;;;10.20;99.90;;;;;;5041860;28;20158;-42
2023/10/26 07:15:45;;;;;;;22.40;5.53;;;10.10;99.90;;;;;;5042820;28;20456;-43
2023/10/26 07:18:13;;;;;;;23.75;5.57;;;10.10;99.90;;;;;;5041481;28;20028;-44
2023/10/26 07:20:39;;;;;;;13.52;5.63;;;10.10;99.90;;;;;;5042879;28;20025;-44
2023/10/26 07:23:04;;;;;;;25.05;5.97;;;10.10;99.90;;;;;;5041148;28;20039;-43
2023/10/26 07:25:34;;;;;;;22.92;5.88;;;10.20;99.90;;;;;;5041543;28;20104;-44
2023/10/26 07:27:59;;;;;;;13.45;5.35;;;10.10;99.90;;;;;;5042564;28;20541;-43
2023/10/26 07:30:28;;;;;;;18.50;5.60;;;10.20;99.90;;;;;;5042202;28;20033;-43
2023/10/26 07:32:53;;;;;;;10.65;5.13;;;10.20;99.90;;;;;;5041456;28;20035;-43
2023/10/26 07:35:19;;;;;;;10.98;5.28;;;10.20;99.90;;;;;;5042235;28;20017;-43
2023/10/26 07:37:45;;;;;;;6.00;4.90;;;10.20;99.90;;;;;;5042270;28;20800;-44
2023/10/26 07:40:27;;;;;;;19.98;5.82;;;10.20;99.90;;;;;;5040823;28;20389;-44
2023/10/26 07:42:52;;;;;;;16.20;5.82;;;10.20;99.90;;;;;;5042051;28;20029;-44
2023/10/26 07:45:18;;;;;;;16.08;5.13;;;10.20;99.90;;;;;;5042466;28;20049;-43
2023/10/26 07:47:50;;;;;;;8.32;5.47;;;10.20;99.90;;;;;;5041285;28;20029;-44
2023/10/26 07:50:22;;;;;;;10.63;6.20;;;10.20;99.90;;;;;;5042139;28;20021;-43
2023/10/26 07:52:47;;;;;;;12.52;5.75;;;10.30;99.90;;;;;;5042312;28;20509;-45
2023/10/26 07:55:13;;;;;;;15.43;7.13;;;10.30;99.90;;;;;;5041037;28;20025;-43
2023/10/26 07:57:41;;;;;;;12.73;7.00;;;10.40;99.90;;;;;;5042232;28;20020;-44
2023/10/26 08:00:08;;;;;;;9.50;7.13;;;10.40;99.90;;;;;;5030175;28;20082;-44
2023/10/26 08:02:33;;;;;;;9.60;6.88;;;10.40;99.90;;;;;;5040906;28;20040;-44
2023/10/26 08:04:59;;;;;;;18.85;7.60;;;10.40;99.90;;;;;;5041980;28;20044;-44
2023/10/26 08:07:25;;;;;;;8.45;7.65;;;10.50;99.90;;;;;;5041351;28;20091;-44
2023/10/26 08:09:50;;;;;;;18.98;7.85;;;10.50;99.90;;;;;;5041432;28;20082;-44
2023/10/26 08:12:16;;;;;;;11.15;7.00;;;10.50;99.90;;;;;;5040838;28;20059;-44
2023/10/26 08:14:42;;;;;;;11.30;6.70;;;10.50;99.90;;;;;;5040404;28;20074;-45
2023/10/26 08:17:07;;;;;;;7.70;6.30;;;10.50;99.90;;;;;;5038853;28;20033;-43
2023/10/26 08:19:33;;;;;;;8.80;6.10;;;10.60;99.90;;;;;;5039808;28;20025;-44
2023/10/26 08:21:58;;;;;;;7.80;6.28;;;10.60;99.90;;;;;;5039190;28;20153;-44
2023/10/26 08:24:28;;;;;;;12.10;6.07;;;10.60;99.90;;;;;;5037427;28;20621;-44
2023/10/26 08:26:56;;;;;;;14.98;6.13;;;10.70;99.90;;;;;;5039492;28;20244;-44
2023/10/26 08:29:22;;;;;;;23.27;7.18;;;10.70;99.90;;;;;;5038931;28;20067;-44
2023/10/26 08:31:48;;;;;;;9.32;6.05;;;10.70;99.90;;;;;;5040814;28;20350;-44
2023/10/26 08:34:13;;;;;;;11.60;6.30;;;10.70;99.90;;;;;;5040343;28;20076;-43
2023/10/26 08:36:39;;;;;;;12.77;5.78;;;10.80;99.90;;;;;;5040476;28;20567;-44
2023/10/26 08:39:06;;;;;;;11.73;6.90;;;10.80;99.90;;;;;;5040458;28;20060;-44
2023/10/26 08:41:35;;;;;;;24.15;7.30;;;10.90;99.90;;;;;;5030346;28;20123;-44
2023/10/26 08:44:02;;;;;;;24.50;7.72;;;10.90;99.90;;;;;;5040034;28;20068;-44
2023/10/26 08:46:30;;;;;;;15.10;6.35;;;11.00;99.90;;;;;;5040866;28;20036;-44
2023/10/26 08:49:00;;;;;;;15.73;6.97;;;11.00;99.90;;;;;;5040797;28;20052;-44
2023/10/26 08:51:27;;;;;;;11.35;6.45;;;11.00;99.90;;;;;;5036146;28;20021;-45
2023/10/26 08:53:53;;;;;;;10.43;6.63;;;11.10;99.90;;;;;;5041101;28;20025;-44
2023/10/26 08:56:21;;;;;;;16.48;8.18;;;11.10;99.90;;;;;;5040321;28;20083;-44
2023/10/26 08:58:48;;;;;;;8.13;6.90;;;11.10;99.90;;;;;;5040448;28;20048;-44
2023/10/26 09:01:14;;;;;;;7.30;6.60;;;11.10;99.90;;;;;;5040765;28;20025;-44
2023/10/26 09:03:40;;;;;;;9.73;6.97;;;11.20;99.90;;;;;;5040395;28;20499;-43
2023/10/26 09:06:05;;;;;;;7.60;6.85;;;11.20;99.90;;;;;;5039802;28;20022;-44
2023/10/26 09:08:31;;;;;;;7.43;6.72;;;11.30;99.90;;;;;;5041460;28;20881;-46
2023/10/26 09:10:57;;;;;;;7.68;6.88;;;11.20;99.90;;;;;;5040488;28;20017;-47
2023/10/26 09:13:24;;;;;;;9.98;8.65;;;11.30;99.90;;;;;;5040298;28;20067;-45
2023/10/26 09:15:52;;;;;;;8.88;7.95;;;11.30;99.90;;;;;;5040253;28;20029;-45
2023/10/26 09:18:17;;;;;;;8.45;7.50;;;11.40;99.90;;;;;;5039740;28;20032;-44
2023/10/26 09:21:00;;;;;;;9.00;8.10;;;11.40;99.90;;;;;;5040018;28;20032;-44
2023/10/26 09:23:30;;;;;;;10.38;8.75;;;11.40;99.90;;;;;;5040484;28;20166;-44
2023/10/26 09:25:57;;;;;;;10.63;9.13;;;11.50;99.90;;;;;;5040308;28;20035;-43
2023/10/26 09:28:23;;;;;;;9.98;8.75;;;11.50;99.90;;;;;;5039118;28;20123;-44
2023/10/26 09:30:48;;;;;;;9.55;8.25;;;11.60;99.90;;;;;;5039749;28;20646;-44
2023/10/26 09:33:23;;;;;;;9.25;8.20;;;11.60;99.90;;;;;;5039215;28;20571;-44
2023/10/26 09:35:49;;;;;;;9.48;8.48;;;11.70;99.90;;;;;;5040180;28;20086;-44
2023/10/26 09:38:33;;;;;;;9.98;7.85;;;11.70;99.90;;;;;;5039868;28;20033;-44
2023/10/26 09:41:04;;;;;;;9.70;8.63;;;11.70;99.90;;;;;;5039529;28;20106;-45
2023/10/26 09:43:30;;;;;;;10.45;9.35;;;11.70;99.90;;;;;;5040272;28;20056;-45
2023/10/26 09:45:56;;;;;;;11.05;9.48;;;11.70;99.90;;;;;;5039419;28;20142;-45
2023/10/26 09:48:22;;;;;;;11.02;9.20;;;11.80;99.90;;;;;;5039468;28;20017;-44
2023/10/26 09:50:49;;;;;;;11.23;9.98;;;11.80;99.90;;;;;;5040411;28;20036;-44
2023/10/26 09:53:16;;;;;;;11.07;9.43;;;11.80;99.90;;;;;;5038887;28;20025;-44
2023/10/26 09:55:44;;;;;;;12.20;9.45;;;11.80;99.90;;;;;;5040959;28;20519;-44
2023/10/26 09:58:11;;;;;;;12.40;10.15;;;11.80;99.90;;;;;;5040036;28;20136;-44
2023/10/26 10:00:37;;;;;;;10.82;9.27;;;11.80;99.90;;;;;;5039353;28;20025;-44
2023/10/26 10:03:42;;;;;;;10.90;9.00;;;11.90;99.90;;;;;;5039268;28;20037;-43
2023/10/26 10:06:28;;;;;;;10.85;8.77;;;11.90;99.90;;;;;;5020140;28;20036;-43
2023/10/26 10:09:00;;;;;;;12.07;10.27;;;11.90;99.90;;;;;;5038636;28;20021;-44
2023/10/26 10:11:26;;;;;;;;;;;12.00;99.90;;;;;;5041002;28;20025;-44
2023/10/26 10:13:51;;;;;;;14.85;11.20;;;12.00;99.90;;;;;;5040230;28;19909;-44
2023/10/26 10:16:35;;;;;;;13.80;10.43;;;11.90;99.90;;;;;;5038937;28;20067;-43
2023/10/26 10:19:20;;;;;;;11.65;10.25;;;11.90;99.90;;;;;;5042877;28;20597;-45
2023/10/26 10:21:48;;;;;;;14.20;11.18;;;11.80;99.90;;;;;;5043435;28;20033;-44
2023/10/26 10:24:42;;;;;;;15.05;13.02;;;11.80;99.90;;;;;;5042612;28;20027;-44
2023/10/26 10:27:09;;;;;;;16.08;13.18;;;11.70;99.90;;;;;;5042855;28;20092;-44
2023/10/26 10:29:35;;;;;;;16.38;13.95;;;11.70;99.90;;;;;;5042158;28;20056;-44
2023/10/26 10:32:00;;;;;;;18.00;14.52;;;11.70;99.90;;;;;;5044126;28;20052;-44
2023/10/26 10:34:33;;;;;;;17.15;13.95;;;11.60;99.90;;;;;;5043035;28;20492;-44
2023/10/26 10:37:21;;;;;;;13.82;11.38;;;11.60;99.90;;;;;;5042988;28;20051;-44
2023/10/26 10:40:13;;;;;;;13.65;11.90;;;11.70;99.90;;;;;;5043523;28;20029;-44
2023/10/26 10:42:40;;;;;;;14.70;12.88;;;11.70;99.90;;;;;;5042358;28;20040;-44
2023/10/26 10:45:12;;;;;;;14.73;12.77;;;11.70;99.90;;;;;;5042421;28;20573;-44
2023/10/26 10:47:39;;;;;;;17.38;13.15;;;11.70;99.90;;;;;;5043252;28;20032;-44
2023/10/26 10:50:21;;;;;;;17.10;14.32;;;11.80;99.90;;;;;;5041964;28;20119;-44
2023/10/26 10:52:55;;;;;;;18.20;15.18;;;11.80;99.90;;;;;;5043263;28;20396;-45
2023/10/26 10:55:28;;;;;;;17.25;14.57;;;11.90;99.90;;;;;;5042567;28;20029;-46
2023/10/26 10:58:03;;;;;;;14.48;12.70;;;11.90;99.90;;;;;;5042909;28;20029;-45
2023/10/26 11:00:46;;;;;;;14.30;11.55;;;12.00;99.90;;;;;;5042745;28;20017;-44
2023/10/26 11:03:19;;;;;;;14.68;12.00;;;12.10;99.90;;;;;;5041614;28;20471;-44
2023/10/26 11:05:44;;;;;;;;;;;12.10;99.90;;;;;;5041576;28;20025;-44
2023/10/26 11:08:10;;;;;;;13.63;11.15;;;12.10;99.90;;;;;;5042342;28;20486;-44
2023/10/26 11:10:36;;;;;;;14.32;11.82;;;12.10;99.90;;;;;;5041889;28;20086;-44
2023/10/26 11:13:02;;;;;;;12.20;10.68;;;12.10;99.90;;;;;;5042336;28;20473;-44
2023/10/26 11:15:36;;;;;;;12.18;10.55;;;12.20;99.90;;;;;;5042353;28;20029;-44
2023/10/26 11:18:02;;;;;;;13.07;11.18;;;12.20;99.90;;;;;;5041170;28;20021;-44
2023/10/26 11:20:42;;;;;;;12.02;10.63;;;12.30;99.90;;;;;;5042367;28;20025;-44
2023/10/26 11:23:12;;;;;;;12.27;10.55;;;12.30;99.90;;;;;;5042133;28;20040;-44
2023/10/26 11:25:38;;;;;;;11.80;10.10;;;12.40;99.90;;;;;;5041839;28;20032;-45
2023/10/26 11:28:04;;;;;;;12.50;10.60;;;12.50;99.90;;;;;;5041926;28;20041;-43
2023/10/26 11:30:44;;;;;;;12.48;10.93;;;12.50;99.90;;;;;;5041363;28;20024;-43
2023/10/26 11:33:09;;;;;;;11.07;9.65;;;12.60;99.90;;;;;;5041088;28;20053;-43
2023/10/26 11:35:44;;;;;;;14.07;11.48;;;12.60;99.90;;;;;;5042098;28;20048;-43
2023/10/26 11:38:09;;;;;;;13.52;11.38;;;12.70;99.90;;;;;;5042147;28;20108;-44
2023/10/26 11:40:35;;;;;;;12.07;10.75;;;12.70;99.90;;;;;;5041316;28;20059;-44
2023/10/26 11:43:03;;;;;;;12.15;10.85;;;12.70;99.90;;;;;;5041846;28;20045;-44
2023/10/26 11:45:29;;;;;;;11.32;10.13;;;12.80;99.90;;;;;;5041685;28;20739;-44
2023/10/26 11:48:03;;;;;;;13.63;10.63;;;12.80;99.90;;;;;;5042237;28;20040;-44
2023/10/26 11:50:31;;;;;;;12.52;10.30;;;12.90;99.90;;;;;;5041934;28;20031;-44
2023/10/26 11:53:02;;;;;;;11.68;10.48;;;12.90;99.90;;;;;;5031194;28;20032;-44
2023/10/26 11:55:29;;;;;;;12.52;10.35;;;12.90;99.90;;;;;;5041306;28;20013;-44
2023/10/26 11:57:58;;;;;;;11.52;10.00;;;12.90;99.90;;;;;;5042071;28;20025;-44
2023/10/26 12:00:28;;;;;;;12.02;9.98;;;12.80;99.90;;;;;;5041119;28;20511;-44
2023/10/26 12:02:55;;;;;;;12.32;10.38;;;12.90;99.90;;;;;;5042245;28;20056;-44
2023/10/26 12:05:22;;;;;;;11.45;10.25;;;12.90;99.90;;;;;;5041314;28;20021;-44
2023/10/26 12:07:48;;;;;;;11.77;9.75;;;12.90;99.90;;;;;;5040836;28;20025;-44
2023/10/26 12:10:16;;;;;;;10.57;9.48;;;12.90;99.90;;;;;;5041910;28;20056;-44
2023/10/26 12:12:42;;;;;;;11.98;10.07;;;12.90;99.90;;;;;;5041730;28;20025;-44
2023/10/26 12:15:09;;;;;;;11.80;10.15;;;13.00;99.90;;;;;;5040026;28;20044;-44
2023/10/26 12:17:34;;;;;;;10.90;9.77;;;13.00;99.90;;;;;;5041404;28;20840;-44
2023/10/26 12:20:03;;;;;;;12.57;10.85;;;13.00;99.90;;;;;;5040826;28;20059;-44
2023/10/26 12:22:29;;;;;;;12.15;10.75;;;12.90;99.90;;;;;;5040350;28;20055;-44
2023/10/26 12:24:58;;;;;;;12.85;11.52;;;13.00;99.90;;;;;;5041253;28;20029;-44
2023/10/26 12:27:23;;;;;;;11.45;10.25;;;12.90;99.90;;;;;;5040918;28;20036;-46
2023/10/26 12:29:49;;;;;;;12.90;11.57;;;12.90;99.90;;;;;;5041038;28;20028;-44
2023/10/26 12:32:19;;;;;;;12.13;10.85;;;12.90;99.90;;;;;;5040938;28;20495;-44
2023/10/26 12:34:45;;;;;;;13.55;11.98;;;12.90;99.90;;;;;;5039902;28;20059;-44